Kitanomaru — JD2835 — position and weather

sailwx.info

Track history (hours):
 
Tides and Currents Weather Stations Pressure Air Temp Water Temp Dewpoint Dewpoint Depression Visibility Wind Speed Wind Dir Waves Ship Positions

Kitanomaru

Last reported at 2018-Feb-25 08:00 UTC. Time now 2018-Feb-25 08:25 UTC.
Position N 35°36' E 140°07'.

Length 39 m; draft 4 m.

Type: Tug. MMSI: 431000773.

Date/timePositionNaut miles runAvg speedWind from/ knotsBaromVisibWave heightAir tempDewpointWater temp
2018-Feb-25 08:00N 35°36' E 140°07'0 0.0
2018-Feb-25 07:31N 35°36' E 140°07'0 0.0
2018-Feb-25 07:01N 35°36' E 140°07'0 0.0
2018-Feb-25 06:30N 35°36' E 140°07'0 0.0
2018-Feb-25 06:00N 35°36' E 140°07'0 0.0
2018-Feb-25 05:30N 35°36' E 140°07'0 0.0
2018-Feb-25 05:01N 35°36' E 140°07'3 5.8
2018-Feb-25 04:31N 35°35' E 140°04'5 8.8
2018-Feb-25 03:59N 35°31' E 140°00'3 6.2
2018-Feb-25 03:31N 35°28' E 139°58'0 0.0
2018-Feb-25 02:59N 35°28' E 139°58'0 0.0
2018-Feb-25 02:30N 35°28' E 139°58'0 0.1
2018-Feb-25 02:01N 35°28' E 139°58'1 2.2
2018-Feb-25 01:31N 35°29' E 139°57'0 0.4
2018-Feb-25 00:58N 35°29' E 139°57'0 0.1
2018-Feb-25 00:30N 35°29' E 139°57'4 6.5
2018-Feb-24 23:56N 35°32' E 140°00'4 9.4
2018-Feb-24 23:30N 35°35' E 140°04'3 5.4
2018-Feb-24 23:00N 35°36' E 140°07'0 0.0
2018-Feb-24 22:30N 35°36' E 140°07'0 0.0
2018-Feb-24 22:00N 35°36' E 140°07'0 0.0
2018-Feb-24 21:30N 35°36' E 140°07'0 0.0
2018-Feb-24 21:00N 35°36' E 140°07'0 0.0
2018-Feb-24 20:30N 35°36' E 140°07'0 0.0
2018-Feb-24 20:01N 35°36' E 140°07'0 0.0
2018-Feb-24 19:30N 35°36' E 140°07'0 0.1
2018-Feb-24 19:01N 35°36' E 140°07'0 0.1
2018-Feb-24 18:30N 35°36' E 140°07'0 0.1
2018-Feb-24 17:59N 35°36' E 140°07'0 0.0
2018-Feb-24 17:30N 35°36' E 140°07'0 0.1
2018-Feb-24 17:00N 35°36' E 140°07'0 0.0
2018-Feb-24 16:30N 35°36' E 140°07'0 0.1
2018-Feb-24 15:59N 35°36' E 140°07'0 0.1
2018-Feb-24 15:30N 35°36' E 140°07'0 0.1
2018-Feb-24 14:59N 35°36' E 140°07'0 0.1
2018-Feb-24 14:30N 35°36' E 140°07'0 0.0
2018-Feb-24 14:00N 35°36' E 140°07'0 0.0
2018-Feb-24 13:30N 35°36' E 140°07'0 0.0
2018-Feb-24 13:00N 35°36' E 140°07'0 0.0
2018-Feb-24 12:30N 35°36' E 140°07'0 0.0
2018-Feb-24 12:00N 35°36' E 140°07'0 0.1
2018-Feb-24 11:31N 35°36' E 140°07'0 0.1
2018-Feb-24 11:00N 35°36' E 140°07'0 0.0
2018-Feb-24 10:30N 35°36' E 140°07'0 0.1
2018-Feb-24 10:00N 35°36' E 140°07'0 0.0
2018-Feb-24 09:31N 35°36' E 140°07'0 0.1
2018-Feb-24 09:00N 35°36' E 140°07'0 0.0
2018-Feb-24 08:31N 35°36' E 140°07'0 0.0
2018-Feb-24 08:01N 35°36' E 140°07'2 3.2
2018-Feb-24 07:30N 35°35' E 140°05'5 9.8
2018-Feb-24 07:00N 35°31' E 140°02'1 2.4
2018-Feb-24 06:24N 35°30' E 140°02'0 0.1
2018-Feb-24 05:37N 35°30' E 140°02'0 0.1
2018-Feb-24 05:24N 35°30' E 140°02'0 0.6
2018-Feb-24 05:00N 35°30' E 140°01'1 1.9
2018-Feb-24 04:30N 35°31' E 140°00'3 5.4
2018-Feb-24 03:54N 35°33' E 139°58'1 2.4
2018-Feb-24 03:30N 35°34' E 139°58'2 4.8
2018-Feb-24 02:59N 35°33' E 140°00'0 0.0
2018-Feb-24 02:29N 35°33' E 140°00'0 0.0
2018-Feb-24 02:00N 35°33' E 140°00'0 0.0
2018-Feb-24 01:30N 35°33' E 140°00'0 0.0
2018-Feb-24 01:00N 35°33' E 140°00'1 1.2
2018-Feb-24 00:30N 35°32' E 140°01'2 3.5
2018-Feb-24 00:00N 35°31' E 140°02'0 0.0
2018-Feb-23 23:30N 35°31' E 140°02'0 0.1
2018-Feb-23 23:01N 35°31' E 140°02'0 0.3
2018-Feb-23 22:30N 35°31' E 140°02'3 5.7
2018-Feb-23 21:55N 35°31' E 139°58'0 1.1
2018-Feb-23 21:30N 35°31' E 139°58'511.0
2018-Feb-23 21:00N 35°34' E 140°03'4 7.3
2018-Feb-23 20:30N 35°36' E 140°07'0 0.0
2018-Feb-23 20:00N 35°36' E 140°07'0 0.0
2018-Feb-23 19:30N 35°36' E 140°07'0 0.0
2018-Feb-23 19:00N 35°36' E 140°07'0 0.0
2018-Feb-23 18:30N 35°36' E 140°07'0 0.0
2018-Feb-23 18:00N 35°36' E 140°07'0 0.0
2018-Feb-23 17:30N 35°36' E 140°07'0 0.0
2018-Feb-23 17:01N 35°36' E 140°07'0 0.0
2018-Feb-23 16:30N 35°36' E 140°07'0 0.0
2018-Feb-23 16:00N 35°36' E 140°07'0 0.0
2018-Feb-23 15:30N 35°36' E 140°07'0 0.0
2018-Feb-23 15:01N 35°36' E 140°07'0 0.0
2018-Feb-23 14:30N 35°36' E 140°07'0 0.0
2018-Feb-23 14:01N 35°36' E 140°07'0 0.0
2018-Feb-23 13:30N 35°36' E 140°07'0 0.0
2018-Feb-23 13:00N 35°36' E 140°07'0 0.0
2018-Feb-23 12:30N 35°36' E 140°07'0 0.0
2018-Feb-23 12:00N 35°36' E 140°07'0 0.0
2018-Feb-23 11:30N 35°36' E 140°07'0 0.0
2018-Feb-23 11:00N 35°36' E 140°07'0 0.0
2018-Feb-23 10:30N 35°36' E 140°07'0 0.0
2018-Feb-23 10:00N 35°36' E 140°07'0 0.0
2018-Feb-23 09:31N 35°36' E 140°07'0 0.0
2018-Feb-23 09:00N 35°36' E 140°07'0 0.0
2018-Feb-23 08:30N 35°36' E 140°07'0 0.0
2018-Feb-23 08:00N 35°36' E 140°07'0 0.3
2018-Feb-23 07:30N 35°36' E 140°07'4 8.5
2018-Feb-23 07:00N 35°33' E 140°03'1 1.2
2018-Feb-23 06:27N 35°32' E 140°03'2 5.2
2018-Feb-23 05:59N 35°31' E 140°00'3 5.8
2018-Feb-23 05:30N 35°33' E 140°02'4 7.7
2018-Feb-23 05:00N 35°36' E 140°06'0 0.3
2018-Feb-23 04:30N 35°36' E 140°06'1 1.0
2018-Feb-23 04:00N 35°36' E 140°05'1 2.2
2018-Feb-23 03:30N 35°36' E 140°06'1 1.7
2018-Feb-23 03:00N 35°36' E 140°07'0 0.0
2018-Feb-23 02:30N 35°36' E 140°07'0 0.0
2018-Feb-23 02:00N 35°36' E 140°07'0 0.0
2018-Feb-23 01:30N 35°36' E 140°07'0 0.0
2018-Feb-23 01:00N 35°36' E 140°07'0 0.0
2018-Feb-23 00:30N 35°36' E 140°07'0 0.0
2018-Feb-23 00:00N 35°36' E 140°07'1 1.6
2018-Feb-22 23:30N 35°35' E 140°06'0 0.4
2018-Feb-22 23:01N 35°35' E 140°06'1 2.9
2018-Feb-22 22:30N 35°35' E 140°04'3 6.5
2018-Feb-22 22:00N 35°34' E 140°01'2 4.3
2018-Feb-22 21:30N 35°32' E 139°59'2 3.2
2018-Feb-22 21:00N 35°33' E 140°00'510.1
2018-Feb-22 20:30N 35°35' E 140°06'1 2.1
2018-Feb-22 20:01N 35°36' E 140°07'0 0.0
2018-Feb-22 19:30N 35°36' E 140°07'0 0.0
2018-Feb-22 19:00N 35°36' E 140°07'0 0.0
2018-Feb-22 18:30N 35°36' E 140°07'0 0.0
2018-Feb-22 18:00N 35°36' E 140°07'0 0.0
2018-Feb-22 17:30N 35°36' E 140°07'0 0.0
2018-Feb-22 17:00N 35°36' E 140°07'0 0.0
2018-Feb-22 16:30N 35°36' E 140°07'0 0.0
2018-Feb-22 16:00N 35°36' E 140°07'0 0.0
2018-Feb-22 15:31N 35°36' E 140°07'0 0.0
2018-Feb-22 15:00N 35°36' E 140°07'0 0.0
2018-Feb-22 14:30N 35°36' E 140°07'0 0.0
2018-Feb-22 14:00N 35°36' E 140°07'0 0.0
2018-Feb-22 13:30N 35°36' E 140°07'0 0.0
2018-Feb-22 13:00N 35°36' E 140°07'0 0.0
2018-Feb-22 12:30N 35°36' E 140°07'0 0.0
2018-Feb-22 12:01N 35°36' E 140°07'0 0.0
2018-Feb-22 11:30N 35°36' E 140°07'0 0.0
2018-Feb-22 11:00N 35°36' E 140°07'0 0.0
2018-Feb-22 10:30N 35°36' E 140°07'0 0.0
2018-Feb-22 10:00N 35°36' E 140°07'0 0.0
2018-Feb-22 09:30N 35°36' E 140°07'0 0.0
2018-Feb-22 09:01N 35°36' E 140°07'0 0.0
2018-Feb-22 08:30N 35°36' E 140°07'0 0.0
2018-Feb-22 08:01N 35°36' E 140°07'0 0.0
2018-Feb-22 07:30N 35°36' E 140°07'0 0.0
2018-Feb-22 07:00N 35°36' E 140°07'0 0.0
2018-Feb-22 06:30N 35°36' E 140°07'0 0.0
2018-Feb-22 06:00N 35°36' E 140°07'0 0.0
2018-Feb-22 05:31N 35°36' E 140°07'0 0.0
2018-Feb-22 05:00N 35°36' E 140°07'0 0.0
2018-Feb-22 04:30N 35°36' E 140°07'2 3.6
2018-Feb-22 04:01N 35°35' E 140°05'4 8.5
2018-Feb-22 03:30N 35°32' E 140°02'1 1.6
2018-Feb-22 03:00N 35°31' E 140°02'3 6.0
2018-Feb-22 02:27N 35°31' E 139°58'1 1.9
2018-Feb-22 02:00N 35°31' E 139°57'0 0.1
2018-Feb-22 01:30N 35°31' E 139°57'1 1.8
2018-Feb-22 00:55N 35°31' E 139°56'0 0.2
2018-Feb-22 00:31N 35°31' E 139°56'510.0
2018-Feb-22 00:00N 35°34' E 140°01'510.2
2018-Feb-21 23:30N 35°36' E 140°07'0 0.1
2018-Feb-21 23:00N 35°36' E 140°07'0 0.0
2018-Feb-21 22:30N 35°36' E 140°07'0 0.0
2018-Feb-21 22:00N 35°36' E 140°07'0 0.0
2018-Feb-21 21:30N 35°36' E 140°07'0 0.0
2018-Feb-21 21:00N 35°36' E 140°07'0 0.0
2018-Feb-21 20:30N 35°36' E 140°07'0 0.0
2018-Feb-21 20:00N 35°36' E 140°07'0 0.0
2018-Feb-21 19:31N 35°36' E 140°07'0 0.0
2018-Feb-21 19:00N 35°36' E 140°07'0 0.0
2018-Feb-21 18:30N 35°36' E 140°07'0 0.0
2018-Feb-21 18:00N 35°36' E 140°07'0 0.0
2018-Feb-21 17:30N 35°36' E 140°07'0 0.0
2018-Feb-21 17:00N 35°36' E 140°07'0 0.0
2018-Feb-21 16:30N 35°36' E 140°07'0 0.0
2018-Feb-21 16:00N 35°36' E 140°07'0 0.0
2018-Feb-21 15:30N 35°36' E 140°07'0 0.0
2018-Feb-21 15:00N 35°36' E 140°07'0 0.0
2018-Feb-21 14:30N 35°36' E 140°07'0 0.0
2018-Feb-21 14:00N 35°36' E 140°07'0 0.0
2018-Feb-21 13:30N 35°36' E 140°07'0 0.0
2018-Feb-21 13:00N 35°36' E 140°07'0 0.0
2018-Feb-21 12:30N 35°36' E 140°07'0 0.0
2018-Feb-21 12:00N 35°36' E 140°07'0 0.0
2018-Feb-21 11:30N 35°36' E 140°07'0 0.0
2018-Feb-21 11:00N 35°36' E 140°07'0 0.0
2018-Feb-21 10:30N 35°36' E 140°07'0 0.0
2018-Feb-21 10:00N 35°36' E 140°07'0 0.0
2018-Feb-21 09:30N 35°36' E 140°07'0 0.0
2018-Feb-21 09:00N 35°36' E 140°07'0 0.0
2018-Feb-21 08:30N 35°36' E 140°07'0 0.0
2018-Feb-21 08:00N 35°36' E 140°07'0 0.0
2018-Feb-21 07:30N 35°36' E 140°07'0 0.0
2018-Feb-21 07:00N 35°36' E 140°07'0 0.0
2018-Feb-21 06:30N 35°36' E 140°07'0 0.0
2018-Feb-21 06:00N 35°36' E 140°07'0 0.0
2018-Feb-21 05:30N 35°36' E 140°07'0 0.0
2018-Feb-21 05:00N 35°36' E 140°07'0 0.0
2018-Feb-21 04:30N 35°36' E 140°07'0 0.0
2018-Feb-21 04:00N 35°36' E 140°07'0 0.0
2018-Feb-21 03:30N 35°36' E 140°07'3 5.6
2018-Feb-21 03:00N 35°35' E 140°04'610.3
2018-Feb-21 02:26N 35°32' E 139°58'2 3.7
2018-Feb-21 02:00N 35°31' E 139°56'0 0.1
2018-Feb-21 01:30N 35°31' E 139°56'0 0.0
2018-Feb-21 01:00N 35°31' E 139°56'1 1.0
2018-Feb-21 00:27N 35°30' E 139°56'2 3.9
2018-Feb-21 00:00N 35°30' E 139°54'3 4.7
2018-Feb-20 23:23N 35°31' E 139°56'1 1.7
2018-Feb-20 22:59N 35°31' E 139°56'0 0.2
2018-Feb-20 22:30N 35°31' E 139°56'5 9.1
2018-Feb-20 22:00N 35°33' E 140°01'511.0
2018-Feb-20 21:30N 35°36' E 140°07'0 0.4
2018-Feb-20 20:59N 35°36' E 140°07'0 0.0
2018-Feb-20 20:30N 35°36' E 140°07'0 0.0
2018-Feb-20 20:00N 35°36' E 140°07'0 0.0
2018-Feb-20 19:30N 35°36' E 140°07'0 0.0
2018-Feb-20 19:00N 35°36' E 140°07'0 0.0
2018-Feb-20 18:30N 35°36' E 140°07'0 0.0
2018-Feb-20 18:00N 35°36' E 140°07'0 0.0
2018-Feb-20 17:29N 35°36' E 140°07'0 0.0
2018-Feb-20 16:58N 35°36' E 140°07'0 0.0
2018-Feb-20 16:30N 35°36' E 140°07'0 0.0
2018-Feb-20 16:01N 35°36' E 140°07'0 0.0
2018-Feb-20 15:30N 35°36' E 140°07'0 0.0
2018-Feb-20 15:00N 35°36' E 140°07'0 0.0
2018-Feb-20 14:30N 35°36' E 140°07'0 0.0
2018-Feb-20 14:00N 35°36' E 140°07'0 0.0
2018-Feb-20 13:30N 35°36' E 140°07'0 0.0
2018-Feb-20 13:00N 35°36' E 140°07'0 0.0
2018-Feb-20 12:31N 35°36' E 140°07'0 0.0
2018-Feb-20 12:00N 35°36' E 140°07'0 0.0
2018-Feb-20 11:30N 35°36' E 140°07'0 0.0
2018-Feb-20 11:01N 35°36' E 140°07'0 0.0
2018-Feb-20 10:31N 35°36' E 140°07'0 0.0
2018-Feb-20 10:00N 35°36' E 140°07'0 0.0
2018-Feb-20 09:31N 35°36' E 140°07'0 0.0
2018-Feb-20 09:00N 35°36' E 140°07'0 0.0
2018-Feb-20 08:30N 35°36' E 140°07'0 0.0
2018-Feb-20 07:58N 35°36' E 140°07'0 0.0
2018-Feb-20 07:30N 35°36' E 140°07'1 1.8
2018-Feb-20 07:00N 35°36' E 140°06'1 1.7
2018-Feb-20 06:30N 35°36' E 140°05'611.6
2018-Feb-20 06:00N 35°33' E 139°59'1 2.3
2018-Feb-20 05:30N 35°32' E 139°58'0 0.0
2018-Feb-20 05:01N 35°32' E 139°58'0 0.0
2018-Feb-20 04:31N 35°32' E 139°58'3 6.4
2018-Feb-20 04:00N 35°29' E 140°00'0 0.3
2018-Feb-20 03:27N 35°29' E 140°00'510.6
2018-Feb-20 03:00N 35°33' E 140°03'4 8.2
2018-Feb-20 02:30N 35°36' E 140°07'0 0.0
2018-Feb-20 02:00N 35°36' E 140°07'0 0.1
2018-Feb-20 01:31N 35°36' E 140°07'0 0.0
2018-Feb-20 00:59N 35°36' E 140°07'0 0.0
2018-Feb-20 00:28N 35°36' E 140°07'0 0.0
2018-Feb-20 00:00N 35°36' E 140°07'1 1.9
2018-Feb-19 23:31N 35°35' E 140°06'0 0.3
2018-Feb-19 23:00N 35°35' E 140°06'1 2.7
2018-Feb-19 22:29N 35°35' E 140°05'0 0.0
2018-Feb-19 22:01N 35°35' E 140°05'0 0.0
2018-Feb-19 21:31N 35°35' E 140°05'1 2.6
2018-Feb-19 21:00N 35°35' E 140°06'0 0.0
2018-Feb-19 20:31N 35°35' E 140°06'1 1.6
2018-Feb-19 20:00N 35°36' E 140°07'0 0.0
2018-Feb-19 19:30N 35°36' E 140°07'0 0.0
2018-Feb-19 19:00N 35°36' E 140°07'0 0.0
2018-Feb-19 18:30N 35°36' E 140°07'0 0.0
2018-Feb-19 18:01N 35°36' E 140°07'0 0.0
2018-Feb-19 17:30N 35°36' E 140°07'0 0.0
2018-Feb-19 17:01N 35°36' E 140°07'0 0.0
2018-Feb-19 16:31N 35°36' E 140°07'0 0.0
2018-Feb-19 16:00N 35°36' E 140°07'0 0.0
2018-Feb-19 15:30N 35°36' E 140°07'0 0.0
2018-Feb-19 15:00N 35°36' E 140°07'0 0.0
2018-Feb-19 14:30N 35°36' E 140°07'0 0.0
2018-Feb-19 14:01N 35°36' E 140°07'0 0.0
2018-Feb-19 13:31N 35°36' E 140°07'0 0.0
2018-Feb-19 13:00N 35°36' E 140°07'0 0.0
2018-Feb-19 12:30N 35°36' E 140°07'0 0.0
2018-Feb-19 12:00N 35°36' E 140°07'0 0.0
2018-Feb-19 11:31N 35°36' E 140°07'0 0.0
2018-Feb-19 11:00N 35°36' E 140°07'0 0.0
2018-Feb-19 10:31N 35°36' E 140°07'0 0.0
2018-Feb-19 10:00N 35°36' E 140°07'0 0.0
2018-Feb-19 09:30N 35°36' E 140°07'0 0.0
2018-Feb-19 09:00N 35°36' E 140°07'0 0.0
2018-Feb-19 08:30N 35°36' E 140°07'0 0.0
2018-Feb-19 08:00N 35°36' E 140°07'4 8.4
2018-Feb-19 07:30N 35°33' E 140°03'612.0
2018-Feb-19 07:00N 35°29' E 139°58'0 0.7
2018-Feb-19 06:30N 35°28' E 139°58'0 0.0
2018-Feb-19 06:00N 35°28' E 139°58'0 0.9
2018-Feb-19 05:30N 35°29' E 139°58'1 1.6
2018-Feb-19 05:00N 35°29' E 139°57'0 0.5
2018-Feb-19 04:30N 35°29' E 139°58'1 1.9
2018-Feb-19 04:00N 35°28' E 139°58'0 0.0
2018-Feb-19 03:31N 35°28' E 139°58'0 0.6
2018-Feb-19 02:59N 35°29' E 139°58'0 0.0
2018-Feb-19 02:30N 35°29' E 139°58'0 0.0
2018-Feb-19 02:00N 35°29' E 139°58'0 0.0
2018-Feb-19 01:30N 35°29' E 139°58'3 5.4
2018-Feb-19 01:00N 35°31' E 139°56'0 0.0
2018-Feb-19 00:26N 35°31' E 139°56'0 0.2
2018-Feb-19 00:00N 35°31' E 139°56'1 1.2
2018-Feb-18 23:24N 35°30' E 139°56'1 2.8
2018-Feb-18 23:00N 35°30' E 139°55'0 0.3
2018-Feb-18 22:30N 35°30' E 139°55'510.0
2018-Feb-18 22:00N 35°33' E 139°59'510.4
2018-Feb-18 21:30N 35°35' E 140°05'2 3.6
2018-Feb-18 21:00N 35°36' E 140°07'0 0.0
2018-Feb-18 20:30N 35°36' E 140°07'0 0.0
2018-Feb-18 20:01N 35°36' E 140°07'0 0.0
2018-Feb-18 19:30N 35°36' E 140°07'0 0.0
2018-Feb-18 19:00N 35°36' E 140°07'0 0.0
2018-Feb-18 18:30N 35°36' E 140°07'0 0.0
2018-Feb-18 17:59N 35°36' E 140°07'0 0.0
2018-Feb-18 17:30N 35°36' E 140°07'0 0.0
2018-Feb-18 17:01N 35°36' E 140°07'0 0.0
2018-Feb-18 16:31N 35°36' E 140°07'0 0.0
2018-Feb-18 16:01N 35°36' E 140°07'0 0.0
2018-Feb-18 15:30N 35°36' E 140°07'0 0.0
2018-Feb-18 14:59N 35°36' E 140°07'0 0.0
2018-Feb-18 14:31N 35°36' E 140°07'0 0.0
2018-Feb-18 14:01N 35°36' E 140°07'0 0.0
2018-Feb-18 13:31N 35°36' E 140°07'0 0.0
2018-Feb-18 12:59N 35°36' E 140°07'0 0.0
2018-Feb-18 12:30N 35°36' E 140°07'0 0.0
2018-Feb-18 12:01N 35°36' E 140°07'0 0.0
2018-Feb-18 11:31N 35°36' E 140°07'0 0.0
2018-Feb-18 11:01N 35°36' E 140°07'0 0.0
2018-Feb-18 10:30N 35°36' E 140°07'0 0.0
2018-Feb-18 10:00N 35°36' E 140°07'0 0.0
2018-Feb-18 09:31N 35°36' E 140°07'0 0.0
2018-Feb-18 09:01N 35°36' E 140°07'0 0.0
2018-Feb-18 08:30N 35°36' E 140°07'0 0.0
2018-Feb-18 08:00N 35°36' E 140°07'0 0.0
2018-Feb-18 07:31N 35°36' E 140°07'0 0.0
2018-Feb-18 07:00N 35°36' E 140°07'0 0.0
2018-Feb-18 06:29N 35°36' E 140°07'0 0.0
2018-Feb-18 06:00N 35°36' E 140°07'0 0.0
2018-Feb-18 05:30N 35°36' E 140°07'0 0.0
2018-Feb-18 05:00N 35°36' E 140°07'0 0.0
2018-Feb-18 04:31N 35°36' E 140°07'0 0.0
2018-Feb-18 04:00N 35°36' E 140°07'0 0.0
2018-Feb-18 03:30N 35°36' E 140°07'3 6.0
2018-Feb-18 03:01N 35°34' E 140°04'5 5.4
2018-Feb-18 02:10N 35°30' E 140°02'0 0.2
2018-Feb-18 02:00N 35°30' E 140°02'1 2.8
2018-Feb-18 01:30N 35°31' E 140°00'1 1.8
2018-Feb-18 00:56N 35°32' E 139°60'511.2
2018-Feb-18 00:31N 35°35' E 140°04'2 4.6
2018-Feb-18 00:01N 35°36' E 140°07'0 0.0
2018-Feb-17 23:29N 35°36' E 140°07'0 0.0
2018-Feb-17 22:58N 35°36' E 140°07'0 0.0
2018-Feb-17 22:30N 35°36' E 140°07'0 0.0
2018-Feb-17 22:00N 35°36' E 140°07'0 0.0
2018-Feb-17 21:31N 35°36' E 140°07'0 0.0
2018-Feb-17 21:00N 35°36' E 140°07'0 0.0
2018-Feb-17 20:30N 35°36' E 140°07'0 0.0
2018-Feb-17 20:00N 35°36' E 140°07'0 0.0
2018-Feb-17 19:31N 35°36' E 140°07'0 0.0
2018-Feb-17 19:00N 35°36' E 140°07'0 0.0
2018-Feb-17 18:31N 35°36' E 140°07'0 0.0
2018-Feb-17 18:00N 35°36' E 140°07'0 0.0
2018-Feb-17 17:31N 35°36' E 140°07'0 0.0
2018-Feb-17 17:01N 35°36' E 140°07'0 0.0
2018-Feb-17 16:30N 35°36' E 140°07'0 0.0
2018-Feb-17 16:01N 35°36' E 140°07'0 0.0
2018-Feb-17 15:31N 35°36' E 140°07'0 0.0
2018-Feb-17 15:01N 35°36' E 140°07'0 0.0
2018-Feb-17 14:31N 35°36' E 140°07'0 0.0
2018-Feb-17 14:00N 35°36' E 140°07'0 0.0
2018-Feb-17 13:30N 35°36' E 140°07'0 0.0
2018-Feb-17 13:01N 35°36' E 140°07'0 0.0
2018-Feb-17 12:30N 35°36' E 140°07'0 0.0
2018-Feb-17 12:01N 35°36' E 140°07'0 0.0
2018-Feb-17 11:31N 35°36' E 140°07'0 0.0
2018-Feb-17 11:01N 35°36' E 140°07'0 0.0
2018-Feb-17 10:31N 35°36' E 140°07'0 0.0
2018-Feb-17 10:00N 35°36' E 140°07'0 0.0
2018-Feb-17 09:30N 35°36' E 140°07'0 0.0
2018-Feb-17 09:00N 35°36' E 140°07'0 0.0
2018-Feb-17 08:30N 35°36' E 140°07'0 0.0
2018-Feb-17 08:00N 35°36' E 140°07'0 0.0
2018-Feb-17 07:29N 35°36' E 140°07'0 0.0
2018-Feb-17 07:01N 35°36' E 140°07'0 0.0
2018-Feb-17 06:30N 35°36' E 140°07'0 0.3
2018-Feb-17 06:01N 35°36' E 140°07'4 8.8
2018-Feb-17 05:30N 35°34' E 140°02'5 8.7
2018-Feb-17 04:59N 35°33' E 139°56'1 1.8
2018-Feb-17 04:30N 35°33' E 139°57'5 9.2
2018-Feb-17 04:00N 35°33' E 140°03'0 0.6
2018-Feb-17 03:30N 35°32' E 140°03'4 8.8
2018-Feb-17 03:01N 35°36' E 140°07'0 0.0
2018-Feb-17 02:31N 35°36' E 140°07'0 0.0
2018-Feb-17 02:01N 35°36' E 140°07'0 0.0
2018-Feb-17 01:30N 35°36' E 140°07'0 0.0
2018-Feb-17 01:00N 35°36' E 140°07'0 0.0
2018-Feb-17 00:30N 35°36' E 140°07'0 0.0
2018-Feb-17 00:00N 35°36' E 140°07'0 0.2
2018-Feb-16 23:31N 35°36' E 140°07'1 2.2
2018-Feb-16 23:00N 35°36' E 140°06'2 3.6
2018-Feb-16 22:31N 35°35' E 140°03'611.1
2018-Feb-16 21:58N 35°32' E 139°57'3 6.5
2018-Feb-16 21:30N 35°33' E 140°00'4 9.0
2018-Feb-16 21:01N 35°35' E 140°05'1 2.7
2018-Feb-16 20:31N 35°36' E 140°07'0 0.0
2018-Feb-16 20:01N 35°36' E 140°07'0 0.0
2018-Feb-16 19:31N 35°36' E 140°07'0 0.0
2018-Feb-16 19:01N 35°36' E 140°07'0 0.0
2018-Feb-16 18:30N 35°36' E 140°07'0 0.0
2018-Feb-16 18:01N 35°36' E 140°07'0 0.0
2018-Feb-16 17:30N 35°36' E 140°07'0 0.0
2018-Feb-16 17:00N 35°36' E 140°07'0 0.0
2018-Feb-16 16:30N 35°36' E 140°07'0 0.0
2018-Feb-16 16:00N 35°36' E 140°07'0 0.0
2018-Feb-16 15:30N 35°36' E 140°07'0 0.0
2018-Feb-16 15:01N 35°36' E 140°07'0 0.0
2018-Feb-16 14:30N 35°36' E 140°07'0 0.0
2018-Feb-16 14:01N 35°36' E 140°07'0 0.0
2018-Feb-16 13:30N 35°36' E 140°07'0 0.0
2018-Feb-16 13:00N 35°36' E 140°07'0 0.0
2018-Feb-16 12:30N 35°36' E 140°07'0 0.0
2018-Feb-16 12:01N 35°36' E 140°07'0 0.0
2018-Feb-16 11:31N 35°36' E 140°07'0 0.0
2018-Feb-16 11:01N 35°36' E 140°07'0 0.0
2018-Feb-16 10:29N 35°36' E 140°07'0 0.0
2018-Feb-16 10:00N 35°36' E 140°07'0 0.0
2018-Feb-16 09:29N 35°36' E 140°07'0 0.0
2018-Feb-16 09:00N 35°36' E 140°07'0 0.4
2018-Feb-16 08:30N 35°36' E 140°07'0 0.9
2018-Feb-16 08:00N 35°35' E 140°06'0 0.9
2018-Feb-16 07:30N 35°35' E 140°06'1 2.9
2018-Feb-16 07:01N 35°35' E 140°05'711.8
2018-Feb-16 06:26N 35°30' E 139°59'2 4.2
2018-Feb-16 05:57N 35°28' E 139°58'0 0.0
2018-Feb-16 05:30N 35°28' E 139°58'0 0.1
2018-Feb-16 05:00N 35°28' E 139°58'1 2.2
2018-Feb-16 04:30N 35°29' E 139°57'3 5.1
2018-Feb-16 04:00N 35°29' E 139°54'1 1.4
2018-Feb-16 03:26N 35°28' E 139°54'0 0.0
2018-Feb-16 03:00N 35°28' E 139°54'0 0.0
2018-Feb-16 02:29N 35°28' E 139°54'0 0.0
2018-Feb-16 01:59N 35°28' E 139°54'2 4.5
2018-Feb-16 01:30N 35°29' E 139°57'1 2.1
2018-Feb-16 01:01N 35°28' E 139°58'2 3.3
2018-Feb-16 00:28N 35°30' E 139°59'614.2
2018-Feb-16 00:00N 35°35' E 140°04'2 3.3
2018-Feb-15 23:30N 35°35' E 140°06'0 0.9
2018-Feb-15 23:00N 35°35' E 140°06'2 4.6
2018-Feb-15 22:30N 35°35' E 140°03'4 7.3
2018-Feb-15 22:00N 35°33' E 139°59'1 2.0
2018-Feb-15 21:29N 35°32' E 139°59'1 2.4
2018-Feb-15 20:59N 35°33' E 139°60'510.2
2018-Feb-15 20:31N 35°35' E 140°05'2 3.3
2018-Feb-15 20:00N 35°36' E 140°07'0 0.0
2018-Feb-15 19:31N 35°36' E 140°07'0 0.0
2018-Feb-15 19:01N 35°36' E 140°07'0 0.0
2018-Feb-15 18:31N 35°36' E 140°07'0 0.0
2018-Feb-15 18:00N 35°36' E 140°07'0 0.0
2018-Feb-15 17:30N 35°36' E 140°07'0 0.0
2018-Feb-15 17:00N 35°36' E 140°07'0 0.0
2018-Feb-15 16:31N 35°36' E 140°07'0 0.0
2018-Feb-15 16:00N 35°36' E 140°07'0 0.0
2018-Feb-15 15:30N 35°36' E 140°07'0 0.0
2018-Feb-15 15:00N 35°36' E 140°07'0 0.0
2018-Feb-15 14:30N 35°36' E 140°07'0 0.0
2018-Feb-15 14:00N 35°36' E 140°07'0 0.0
2018-Feb-15 13:30N 35°36' E 140°07'0 0.0
2018-Feb-15 13:01N 35°36' E 140°07'0 0.0
2018-Feb-15 12:31N 35°36' E 140°07'0 0.0
2018-Feb-15 12:01N 35°36' E 140°07'0 0.0
2018-Feb-15 11:29N 35°36' E 140°07'0 0.0
2018-Feb-15 11:00N 35°36' E 140°07'0 0.0
2018-Feb-15 10:30N 35°36' E 140°07'0 0.0
2018-Feb-15 10:00N 35°36' E 140°07'0 0.0
2018-Feb-15 09:31N 35°36' E 140°07'0 0.0
2018-Feb-15 09:00N 35°36' E 140°07'0 0.0
2018-Feb-15 08:30N 35°36' E 140°07'0 0.0
2018-Feb-15 08:01N 35°36' E 140°07'  
Track history (hours):
 
Tides and Currents Weather Stations Pressure Air Temp Water Temp Dewpoint Dewpoint Depression Visibility Wind Speed Wind Dir Waves Ship Positions

Kitanomaru

Last reported at 2018-Feb-25 08:00 UTC. Time now 2018-Feb-25 08:25 UTC.
Position N 35°36' E 140°07'.

Length 39 m; draft 4 m.

Type: Tug. MMSI: 431000773.

Date/timePositionNaut miles runAvg speedWind from/ knotsBaromVisibWave heightAir tempDewpointWater temp
2018-Feb-25 08:00N 35°36' E 140°07'0 0.0
2018-Feb-25 07:31N 35°36' E 140°07'0 0.0
2018-Feb-25 07:01N 35°36' E 140°07'0 0.0
2018-Feb-25 06:30N 35°36' E 140°07'0 0.0
2018-Feb-25 06:00N 35°36' E 140°07'0 0.0
2018-Feb-25 05:30N 35°36' E 140°07'0 0.0
2018-Feb-25 05:01N 35°36' E 140°07'3 5.8
2018-Feb-25 04:31N 35°35' E 140°04'5 8.8
2018-Feb-25 03:59N 35°31' E 140°00'3 6.2
2018-Feb-25 03:31N 35°28' E 139°58'0 0.0
2018-Feb-25 02:59N 35°28' E 139°58'0 0.0
2018-Feb-25 02:30N 35°28' E 139°58'0 0.1
2018-Feb-25 02:01N 35°28' E 139°58'1 2.2
2018-Feb-25 01:31N 35°29' E 139°57'0 0.4
2018-Feb-25 00:58N 35°29' E 139°57'0 0.1
2018-Feb-25 00:30N 35°29' E 139°57'4 6.5
2018-Feb-24 23:56N 35°32' E 140°00'4 9.4
2018-Feb-24 23:30N 35°35' E 140°04'3 5.4
2018-Feb-24 23:00N 35°36' E 140°07'0 0.0
2018-Feb-24 22:30N 35°36' E 140°07'0 0.0
2018-Feb-24 22:00N 35°36' E 140°07'0 0.0
2018-Feb-24 21:30N 35°36' E 140°07'0 0.0
2018-Feb-24 21:00N 35°36' E 140°07'0 0.0
2018-Feb-24 20:30N 35°36' E 140°07'0 0.0
2018-Feb-24 20:01N 35°36' E 140°07'0 0.0
2018-Feb-24 19:30N 35°36' E 140°07'0 0.1
2018-Feb-24 19:01N 35°36' E 140°07'0 0.1
2018-Feb-24 18:30N 35°36' E 140°07'0 0.1
2018-Feb-24 17:59N 35°36' E 140°07'0 0.0
2018-Feb-24 17:30N 35°36' E 140°07'0 0.1
2018-Feb-24 17:00N 35°36' E 140°07'0 0.0
2018-Feb-24 16:30N 35°36' E 140°07'0 0.1
2018-Feb-24 15:59N 35°36' E 140°07'0 0.1
2018-Feb-24 15:30N 35°36' E 140°07'0 0.1
2018-Feb-24 14:59N 35°36' E 140°07'0 0.1
2018-Feb-24 14:30N 35°36' E 140°07'0 0.0
2018-Feb-24 14:00N 35°36' E 140°07'0 0.0
2018-Feb-24 13:30N 35°36' E 140°07'0 0.0
2018-Feb-24 13:00N 35°36' E 140°07'0 0.0
2018-Feb-24 12:30N 35°36' E 140°07'0 0.0
2018-Feb-24 12:00N 35°36' E 140°07'0 0.1
2018-Feb-24 11:31N 35°36' E 140°07'0 0.1
2018-Feb-24 11:00N 35°36' E 140°07'0 0.0
2018-Feb-24 10:30N 35°36' E 140°07'0 0.1
2018-Feb-24 10:00N 35°36' E 140°07'0 0.0
2018-Feb-24 09:31N 35°36' E 140°07'0 0.1
2018-Feb-24 09:00N 35°36' E 140°07'0 0.0
2018-Feb-24 08:31N 35°36' E 140°07'0 0.0
2018-Feb-24 08:01N 35°36' E 140°07'2 3.2
2018-Feb-24 07:30N 35°35' E 140°05'5 9.8
2018-Feb-24 07:00N 35°31' E 140°02'1 2.4
2018-Feb-24 06:24N 35°30' E 140°02'0 0.1
2018-Feb-24 05:37N 35°30' E 140°02'0 0.1
2018-Feb-24 05:24N 35°30' E 140°02'0 0.6
2018-Feb-24 05:00N 35°30' E 140°01'1 1.9
2018-Feb-24 04:30N 35°31' E 140°00'3 5.4
2018-Feb-24 03:54N 35°33' E 139°58'1 2.4
2018-Feb-24 03:30N 35°34' E 139°58'2 4.8
2018-Feb-24 02:59N 35°33' E 140°00'0 0.0
2018-Feb-24 02:29N 35°33' E 140°00'0 0.0
2018-Feb-24 02:00N 35°33' E 140°00'0 0.0
2018-Feb-24 01:30N 35°33' E 140°00'0 0.0
2018-Feb-24 01:00N 35°33' E 140°00'1 1.2
2018-Feb-24 00:30N 35°32' E 140°01'2 3.5
2018-Feb-24 00:00N 35°31' E 140°02'0 0.0
2018-Feb-23 23:30N 35°31' E 140°02'0 0.1
2018-Feb-23 23:01N 35°31' E 140°02'0 0.3
2018-Feb-23 22:30N 35°31' E 140°02'3 5.7
2018-Feb-23 21:55N 35°31' E 139°58'0 1.1
2018-Feb-23 21:30N 35°31' E 139°58'511.0
2018-Feb-23 21:00N 35°34' E 140°03'4 7.3
2018-Feb-23 20:30N 35°36' E 140°07'0 0.0
2018-Feb-23 20:00N 35°36' E 140°07'0 0.0
2018-Feb-23 19:30N 35°36' E 140°07'0 0.0
2018-Feb-23 19:00N 35°36' E 140°07'0 0.0
2018-Feb-23 18:30N 35°36' E 140°07'0 0.0
2018-Feb-23 18:00N 35°36' E 140°07'0 0.0
2018-Feb-23 17:30N 35°36' E 140°07'0 0.0
2018-Feb-23 17:01N 35°36' E 140°07'0 0.0
2018-Feb-23 16:30N 35°36' E 140°07'0 0.0
2018-Feb-23 16:00N 35°36' E 140°07'0 0.0
2018-Feb-23 15:30N 35°36' E 140°07'0 0.0
2018-Feb-23 15:01N 35°36' E 140°07'0 0.0
2018-Feb-23 14:30N 35°36' E 140°07'0 0.0
2018-Feb-23 14:01N 35°36' E 140°07'0 0.0
2018-Feb-23 13:30N 35°36' E 140°07'0 0.0
2018-Feb-23 13:00N 35°36' E 140°07'0 0.0
2018-Feb-23 12:30N 35°36' E 140°07'0 0.0
2018-Feb-23 12:00N 35°36' E 140°07'0 0.0
2018-Feb-23 11:30N 35°36' E 140°07'0 0.0
2018-Feb-23 11:00N 35°36' E 140°07'0 0.0
2018-Feb-23 10:30N 35°36' E 140°07'0 0.0
2018-Feb-23 10:00N 35°36' E 140°07'0 0.0
2018-Feb-23 09:31N 35°36' E 140°07'0 0.0
2018-Feb-23 09:00N 35°36' E 140°07'0 0.0
2018-Feb-23 08:30N 35°36' E 140°07'0 0.0
2018-Feb-23 08:00N 35°36' E 140°07'0 0.3
2018-Feb-23 07:30N 35°36' E 140°07'4 8.5
2018-Feb-23 07:00N 35°33' E 140°03'1 1.2
2018-Feb-23 06:27N 35°32' E 140°03'2 5.2
2018-Feb-23 05:59N 35°31' E 140°00'3 5.8
2018-Feb-23 05:30N 35°33' E 140°02'4 7.7
2018-Feb-23 05:00N 35°36' E 140°06'0 0.3
2018-Feb-23 04:30N 35°36' E 140°06'1 1.0
2018-Feb-23 04:00N 35°36' E 140°05'1 2.2
2018-Feb-23 03:30N 35°36' E 140°06'1 1.7
2018-Feb-23 03:00N 35°36' E 140°07'0 0.0
2018-Feb-23 02:30N 35°36' E 140°07'0 0.0
2018-Feb-23 02:00N 35°36' E 140°07'0 0.0
2018-Feb-23 01:30N 35°36' E 140°07'0 0.0
2018-Feb-23 01:00N 35°36' E 140°07'0 0.0
2018-Feb-23 00:30N 35°36' E 140°07'0 0.0
2018-Feb-23 00:00N 35°36' E 140°07'1 1.6
2018-Feb-22 23:30N 35°35' E 140°06'0 0.4
2018-Feb-22 23:01N 35°35' E 140°06'1 2.9
2018-Feb-22 22:30N 35°35' E 140°04'3 6.5
2018-Feb-22 22:00N 35°34' E 140°01'2 4.3
2018-Feb-22 21:30N 35°32' E 139°59'2 3.2
2018-Feb-22 21:00N 35°33' E 140°00'510.1
2018-Feb-22 20:30N 35°35' E 140°06'1 2.1
2018-Feb-22 20:01N 35°36' E 140°07'0 0.0
2018-Feb-22 19:30N 35°36' E 140°07'0 0.0
2018-Feb-22 19:00N 35°36' E 140°07'0 0.0
2018-Feb-22 18:30N 35°36' E 140°07'0 0.0
2018-Feb-22 18:00N 35°36' E 140°07'0 0.0
2018-Feb-22 17:30N 35°36' E 140°07'0 0.0
2018-Feb-22 17:00N 35°36' E 140°07'0 0.0
2018-Feb-22 16:30N 35°36' E 140°07'0 0.0
2018-Feb-22 16:00N 35°36' E 140°07'0 0.0
2018-Feb-22 15:31N 35°36' E 140°07'0 0.0
2018-Feb-22 15:00N 35°36' E 140°07'0 0.0
2018-Feb-22 14:30N 35°36' E 140°07'0 0.0
2018-Feb-22 14:00N 35°36' E 140°07'0 0.0
2018-Feb-22 13:30N 35°36' E 140°07'0 0.0
2018-Feb-22 13:00N 35°36' E 140°07'0 0.0
2018-Feb-22 12:30N 35°36' E 140°07'0 0.0
2018-Feb-22 12:01N 35°36' E 140°07'0 0.0
2018-Feb-22 11:30N 35°36' E 140°07'0 0.0
2018-Feb-22 11:00N 35°36' E 140°07'0 0.0
2018-Feb-22 10:30N 35°36' E 140°07'0 0.0
2018-Feb-22 10:00N 35°36' E 140°07'0 0.0
2018-Feb-22 09:30N 35°36' E 140°07'0 0.0
2018-Feb-22 09:01N 35°36' E 140°07'0 0.0
2018-Feb-22 08:30N 35°36' E 140°07'0 0.0
2018-Feb-22 08:01N 35°36' E 140°07'0 0.0
2018-Feb-22 07:30N 35°36' E 140°07'0 0.0
2018-Feb-22 07:00N 35°36' E 140°07'0 0.0
2018-Feb-22 06:30N 35°36' E 140°07'0 0.0
2018-Feb-22 06:00N 35°36' E 140°07'0 0.0
2018-Feb-22 05:31N 35°36' E 140°07'0 0.0
2018-Feb-22 05:00N 35°36' E 140°07'0 0.0
2018-Feb-22 04:30N 35°36' E 140°07'2 3.6
2018-Feb-22 04:01N 35°35' E 140°05'4 8.5
2018-Feb-22 03:30N 35°32' E 140°02'1 1.6
2018-Feb-22 03:00N 35°31' E 140°02'3 6.0
2018-Feb-22 02:27N 35°31' E 139°58'1 1.9
2018-Feb-22 02:00N 35°31' E 139°57'0 0.1
2018-Feb-22 01:30N 35°31' E 139°57'1 1.8
2018-Feb-22 00:55N 35°31' E 139°56'0 0.2
2018-Feb-22 00:31N 35°31' E 139°56'510.0
2018-Feb-22 00:00N 35°34' E 140°01'510.2
2018-Feb-21 23:30N 35°36' E 140°07'0 0.1
2018-Feb-21 23:00N 35°36' E 140°07'0 0.0
2018-Feb-21 22:30N 35°36' E 140°07'0 0.0
2018-Feb-21 22:00N 35°36' E 140°07'0 0.0
2018-Feb-21 21:30N 35°36' E 140°07'0 0.0
2018-Feb-21 21:00N 35°36' E 140°07'0 0.0
2018-Feb-21 20:30N 35°36' E 140°07'0 0.0
2018-Feb-21 20:00N 35°36' E 140°07'0 0.0
2018-Feb-21 19:31N 35°36' E 140°07'0 0.0
2018-Feb-21 19:00N 35°36' E 140°07'0 0.0
2018-Feb-21 18:30N 35°36' E 140°07'0 0.0
2018-Feb-21 18:00N 35°36' E 140°07'0 0.0
2018-Feb-21 17:30N 35°36' E 140°07'0 0.0
2018-Feb-21 17:00N 35°36' E 140°07'0 0.0
2018-Feb-21 16:30N 35°36' E 140°07'0 0.0
2018-Feb-21 16:00N 35°36' E 140°07'0 0.0
2018-Feb-21 15:30N 35°36' E 140°07'0 0.0
2018-Feb-21 15:00N 35°36' E 140°07'0 0.0
2018-Feb-21 14:30N 35°36' E 140°07'0 0.0
2018-Feb-21 14:00N 35°36' E 140°07'0 0.0
2018-Feb-21 13:30N 35°36' E 140°07'0 0.0
2018-Feb-21 13:00N 35°36' E 140°07'0 0.0
2018-Feb-21 12:30N 35°36' E 140°07'0 0.0
2018-Feb-21 12:00N 35°36' E 140°07'0 0.0
2018-Feb-21 11:30N 35°36' E 140°07'0 0.0
2018-Feb-21 11:00N 35°36' E 140°07'0 0.0
2018-Feb-21 10:30N 35°36' E 140°07'0 0.0
2018-Feb-21 10:00N 35°36' E 140°07'0 0.0
2018-Feb-21 09:30N 35°36' E 140°07'0 0.0
2018-Feb-21 09:00N 35°36' E 140°07'0 0.0
2018-Feb-21 08:30N 35°36' E 140°07'0 0.0
2018-Feb-21 08:00N 35°36' E 140°07'0 0.0
2018-Feb-21 07:30N 35°36' E 140°07'0 0.0
2018-Feb-21 07:00N 35°36' E 140°07'0 0.0
2018-Feb-21 06:30N 35°36' E 140°07'0 0.0
2018-Feb-21 06:00N 35°36' E 140°07'0 0.0
2018-Feb-21 05:30N 35°36' E 140°07'0 0.0
2018-Feb-21 05:00N 35°36' E 140°07'0 0.0
2018-Feb-21 04:30N 35°36' E 140°07'0 0.0
2018-Feb-21 04:00N 35°36' E 140°07'0 0.0
2018-Feb-21 03:30N 35°36' E 140°07'3 5.6
2018-Feb-21 03:00N 35°35' E 140°04'610.3
2018-Feb-21 02:26N 35°32' E 139°58'2 3.7
2018-Feb-21 02:00N 35°31' E 139°56'0 0.1
2018-Feb-21 01:30N 35°31' E 139°56'0 0.0
2018-Feb-21 01:00N 35°31' E 139°56'1 1.0
2018-Feb-21 00:27N 35°30' E 139°56'2 3.9
2018-Feb-21 00:00N 35°30' E 139°54'3 4.7
2018-Feb-20 23:23N 35°31' E 139°56'1 1.7
2018-Feb-20 22:59N 35°31' E 139°56'0 0.2
2018-Feb-20 22:30N 35°31' E 139°56'5 9.1
2018-Feb-20 22:00N 35°33' E 140°01'511.0
2018-Feb-20 21:30N 35°36' E 140°07'0 0.4
2018-Feb-20 20:59N 35°36' E 140°07'0 0.0
2018-Feb-20 20:30N 35°36' E 140°07'0 0.0
2018-Feb-20 20:00N 35°36' E 140°07'0 0.0
2018-Feb-20 19:30N 35°36' E 140°07'0 0.0
2018-Feb-20 19:00N 35°36' E 140°07'0 0.0
2018-Feb-20 18:30N 35°36' E 140°07'0 0.0
2018-Feb-20 18:00N 35°36' E 140°07'0 0.0
2018-Feb-20 17:29N 35°36' E 140°07'0 0.0
2018-Feb-20 16:58N 35°36' E 140°07'0 0.0
2018-Feb-20 16:30N 35°36' E 140°07'0 0.0
2018-Feb-20 16:01N 35°36' E 140°07'0 0.0
2018-Feb-20 15:30N 35°36' E 140°07'0 0.0
2018-Feb-20 15:00N 35°36' E 140°07'0 0.0
2018-Feb-20 14:30N 35°36' E 140°07'0 0.0
2018-Feb-20 14:00N 35°36' E 140°07'0 0.0
2018-Feb-20 13:30N 35°36' E 140°07'0 0.0
2018-Feb-20 13:00N 35°36' E 140°07'0 0.0
2018-Feb-20 12:31N 35°36' E 140°07'0 0.0
2018-Feb-20 12:00N 35°36' E 140°07'0 0.0
2018-Feb-20 11:30N 35°36' E 140°07'0 0.0
2018-Feb-20 11:01N 35°36' E 140°07'0 0.0
2018-Feb-20 10:31N 35°36' E 140°07'0 0.0
2018-Feb-20 10:00N 35°36' E 140°07'0 0.0
2018-Feb-20 09:31N 35°36' E 140°07'0 0.0
2018-Feb-20 09:00N 35°36' E 140°07'0 0.0
2018-Feb-20 08:30N 35°36' E 140°07'0 0.0
2018-Feb-20 07:58N 35°36' E 140°07'0 0.0
2018-Feb-20 07:30N 35°36' E 140°07'1 1.8
2018-Feb-20 07:00N 35°36' E 140°06'1 1.7
2018-Feb-20 06:30N 35°36' E 140°05'611.6
2018-Feb-20 06:00N 35°33' E 139°59'1 2.3
2018-Feb-20 05:30N 35°32' E 139°58'0 0.0
2018-Feb-20 05:01N 35°32' E 139°58'0 0.0
2018-Feb-20 04:31N 35°32' E 139°58'3 6.4
2018-Feb-20 04:00N 35°29' E 140°00'0 0.3
2018-Feb-20 03:27N 35°29' E 140°00'510.6
2018-Feb-20 03:00N 35°33' E 140°03'4 8.2
2018-Feb-20 02:30N 35°36' E 140°07'0 0.0
2018-Feb-20 02:00N 35°36' E 140°07'0 0.1
2018-Feb-20 01:31N 35°36' E 140°07'0 0.0
2018-Feb-20 00:59N 35°36' E 140°07'0 0.0
2018-Feb-20 00:28N 35°36' E 140°07'0 0.0
2018-Feb-20 00:00N 35°36' E 140°07'1 1.9
2018-Feb-19 23:31N 35°35' E 140°06'0 0.3
2018-Feb-19 23:00N 35°35' E 140°06'1 2.7
2018-Feb-19 22:29N 35°35' E 140°05'0 0.0
2018-Feb-19 22:01N 35°35' E 140°05'0 0.0
2018-Feb-19 21:31N 35°35' E 140°05'1 2.6
2018-Feb-19 21:00N 35°35' E 140°06'0 0.0
2018-Feb-19 20:31N 35°35' E 140°06'1 1.6
2018-Feb-19 20:00N 35°36' E 140°07'0 0.0
2018-Feb-19 19:30N 35°36' E 140°07'0 0.0
2018-Feb-19 19:00N 35°36' E 140°07'0 0.0
2018-Feb-19 18:30N 35°36' E 140°07'0 0.0
2018-Feb-19 18:01N 35°36' E 140°07'0 0.0
2018-Feb-19 17:30N 35°36' E 140°07'0 0.0
2018-Feb-19 17:01N 35°36' E 140°07'0 0.0
2018-Feb-19 16:31N 35°36' E 140°07'0 0.0
2018-Feb-19 16:00N 35°36' E 140°07'0 0.0
2018-Feb-19 15:30N 35°36' E 140°07'0 0.0
2018-Feb-19 15:00N 35°36' E 140°07'0 0.0
2018-Feb-19 14:30N 35°36' E 140°07'0 0.0
2018-Feb-19 14:01N 35°36' E 140°07'0 0.0
2018-Feb-19 13:31N 35°36' E 140°07'0 0.0
2018-Feb-19 13:00N 35°36' E 140°07'0 0.0
2018-Feb-19 12:30N 35°36' E 140°07'0 0.0
2018-Feb-19 12:00N 35°36' E 140°07'0 0.0
2018-Feb-19 11:31N 35°36' E 140°07'0 0.0
2018-Feb-19 11:00N 35°36' E 140°07'0 0.0
2018-Feb-19 10:31N 35°36' E 140°07'0 0.0
2018-Feb-19 10:00N 35°36' E 140°07'0 0.0
2018-Feb-19 09:30N 35°36' E 140°07'0 0.0
2018-Feb-19 09:00N 35°36' E 140°07'0 0.0
2018-Feb-19 08:30N 35°36' E 140°07'0 0.0
2018-Feb-19 08:00N 35°36' E 140°07'4 8.4
2018-Feb-19 07:30N 35°33' E 140°03'612.0
2018-Feb-19 07:00N 35°29' E 139°58'0 0.7
2018-Feb-19 06:30N 35°28' E 139°58'0 0.0
2018-Feb-19 06:00N 35°28' E 139°58'0 0.9
2018-Feb-19 05:30N 35°29' E 139°58'1 1.6
2018-Feb-19 05:00N 35°29' E 139°57'0 0.5
2018-Feb-19 04:30N 35°29' E 139°58'1 1.9
2018-Feb-19 04:00N 35°28' E 139°58'0 0.0
2018-Feb-19 03:31N 35°28' E 139°58'0 0.6
2018-Feb-19 02:59N 35°29' E 139°58'0 0.0
2018-Feb-19 02:30N 35°29' E 139°58'0 0.0
2018-Feb-19 02:00N 35°29' E 139°58'0 0.0
2018-Feb-19 01:30N 35°29' E 139°58'3 5.4
2018-Feb-19 01:00N 35°31' E 139°56'0 0.0
2018-Feb-19 00:26N 35°31' E 139°56'0 0.2
2018-Feb-19 00:00N 35°31' E 139°56'1 1.2
2018-Feb-18 23:24N 35°30' E 139°56'1 2.8
2018-Feb-18 23:00N 35°30' E 139°55'0 0.3
2018-Feb-18 22:30N 35°30' E 139°55'510.0
2018-Feb-18 22:00N 35°33' E 139°59'510.4
2018-Feb-18 21:30N 35°35' E 140°05'2 3.6
2018-Feb-18 21:00N 35°36' E 140°07'0 0.0
2018-Feb-18 20:30N 35°36' E 140°07'0 0.0
2018-Feb-18 20:01N 35°36' E 140°07'0 0.0
2018-Feb-18 19:30N 35°36' E 140°07'0 0.0
2018-Feb-18 19:00N 35°36' E 140°07'0 0.0
2018-Feb-18 18:30N 35°36' E 140°07'0 0.0
2018-Feb-18 17:59N 35°36' E 140°07'0 0.0
2018-Feb-18 17:30N 35°36' E 140°07'0 0.0
2018-Feb-18 17:01N 35°36' E 140°07'0 0.0
2018-Feb-18 16:31N 35°36' E 140°07'0 0.0
2018-Feb-18 16:01N 35°36' E 140°07'0 0.0
2018-Feb-18 15:30N 35°36' E 140°07'0 0.0
2018-Feb-18 14:59N 35°36' E 140°07'0 0.0
2018-Feb-18 14:31N 35°36' E 140°07'0 0.0
2018-Feb-18 14:01N 35°36' E 140°07'0 0.0
2018-Feb-18 13:31N 35°36' E 140°07'0 0.0
2018-Feb-18 12:59N 35°36' E 140°07'0 0.0
2018-Feb-18 12:30N 35°36' E 140°07'0 0.0
2018-Feb-18 12:01N 35°36' E 140°07'0 0.0
2018-Feb-18 11:31N 35°36' E 140°07'0 0.0
2018-Feb-18 11:01N 35°36' E 140°07'0 0.0
2018-Feb-18 10:30N 35°36' E 140°07'0 0.0
2018-Feb-18 10:00N 35°36' E 140°07'0 0.0
2018-Feb-18 09:31N 35°36' E 140°07'0 0.0
2018-Feb-18 09:01N 35°36' E 140°07'0 0.0
2018-Feb-18 08:30N 35°36' E 140°07'0 0.0
2018-Feb-18 08:00N 35°36' E 140°07'0 0.0
2018-Feb-18 07:31N 35°36' E 140°07'0 0.0
2018-Feb-18 07:00N 35°36' E 140°07'0 0.0
2018-Feb-18 06:29N 35°36' E 140°07'0 0.0
2018-Feb-18 06:00N 35°36' E 140°07'0 0.0
2018-Feb-18 05:30N 35°36' E 140°07'0 0.0
2018-Feb-18 05:00N 35°36' E 140°07'0 0.0
2018-Feb-18 04:31N 35°36' E 140°07'0 0.0
2018-Feb-18 04:00N 35°36' E 140°07'0 0.0
2018-Feb-18 03:30N 35°36' E 140°07'3 6.0
2018-Feb-18 03:01N 35°34' E 140°04'5 5.4
2018-Feb-18 02:10N 35°30' E 140°02'0 0.2
2018-Feb-18 02:00N 35°30' E 140°02'1 2.8
2018-Feb-18 01:30N 35°31' E 140°00'1 1.8
2018-Feb-18 00:56N 35°32' E 139°60'511.2
2018-Feb-18 00:31N 35°35' E 140°04'2 4.6
2018-Feb-18 00:01N 35°36' E 140°07'0 0.0
2018-Feb-17 23:29N 35°36' E 140°07'0 0.0
2018-Feb-17 22:58N 35°36' E 140°07'0 0.0
2018-Feb-17 22:30N 35°36' E 140°07'0 0.0
2018-Feb-17 22:00N 35°36' E 140°07'0 0.0
2018-Feb-17 21:31N 35°36' E 140°07'0 0.0
2018-Feb-17 21:00N 35°36' E 140°07'0 0.0
2018-Feb-17 20:30N 35°36' E 140°07'0 0.0
2018-Feb-17 20:00N 35°36' E 140°07'0 0.0
2018-Feb-17 19:31N 35°36' E 140°07'0 0.0
2018-Feb-17 19:00N 35°36' E 140°07'0 0.0
2018-Feb-17 18:31N 35°36' E 140°07'0 0.0
2018-Feb-17 18:00N 35°36' E 140°07'0 0.0
2018-Feb-17 17:31N 35°36' E 140°07'0 0.0
2018-Feb-17 17:01N 35°36' E 140°07'0 0.0
2018-Feb-17 16:30N 35°36' E 140°07'0 0.0
2018-Feb-17 16:01N 35°36' E 140°07'0 0.0
2018-Feb-17 15:31N 35°36' E 140°07'0 0.0
2018-Feb-17 15:01N 35°36' E 140°07'0 0.0
2018-Feb-17 14:31N 35°36' E 140°07'0 0.0
2018-Feb-17 14:00N 35°36' E 140°07'0 0.0
2018-Feb-17 13:30N 35°36' E 140°07'0 0.0
2018-Feb-17 13:01N 35°36' E 140°07'0 0.0
2018-Feb-17 12:30N 35°36' E 140°07'0 0.0
2018-Feb-17 12:01N 35°36' E 140°07'0 0.0
2018-Feb-17 11:31N 35°36' E 140°07'0 0.0
2018-Feb-17 11:01N 35°36' E 140°07'0 0.0
2018-Feb-17 10:31N 35°36' E 140°07'0 0.0
2018-Feb-17 10:00N 35°36' E 140°07'0 0.0
2018-Feb-17 09:30N 35°36' E 140°07'0 0.0
2018-Feb-17 09:00N 35°36' E 140°07'0 0.0
2018-Feb-17 08:30N 35°36' E 140°07'0 0.0
2018-Feb-17 08:00N 35°36' E 140°07'0 0.0
2018-Feb-17 07:29N 35°36' E 140°07'0 0.0
2018-Feb-17 07:01N 35°36' E 140°07'0 0.0
2018-Feb-17 06:30N 35°36' E 140°07'0 0.3
2018-Feb-17 06:01N 35°36' E 140°07'4 8.8
2018-Feb-17 05:30N 35°34' E 140°02'5 8.7
2018-Feb-17 04:59N 35°33' E 139°56'1 1.8
2018-Feb-17 04:30N 35°33' E 139°57'5 9.2
2018-Feb-17 04:00N 35°33' E 140°03'0 0.6
2018-Feb-17 03:30N 35°32' E 140°03'4 8.8
2018-Feb-17 03:01N 35°36' E 140°07'0 0.0
2018-Feb-17 02:31N 35°36' E 140°07'0 0.0
2018-Feb-17 02:01N 35°36' E 140°07'0 0.0
2018-Feb-17 01:30N 35°36' E 140°07'0 0.0
2018-Feb-17 01:00N 35°36' E 140°07'0 0.0
2018-Feb-17 00:30N 35°36' E 140°07'0 0.0
2018-Feb-17 00:00N 35°36' E 140°07'0 0.2
2018-Feb-16 23:31N 35°36' E 140°07'1 2.2
2018-Feb-16 23:00N 35°36' E 140°06'2 3.6
2018-Feb-16 22:31N 35°35' E 140°03'611.1
2018-Feb-16 21:58N 35°32' E 139°57'3 6.5
2018-Feb-16 21:30N 35°33' E 140°00'4 9.0
2018-Feb-16 21:01N 35°35' E 140°05'1 2.7
2018-Feb-16 20:31N 35°36' E 140°07'0 0.0
2018-Feb-16 20:01N 35°36' E 140°07'0 0.0
2018-Feb-16 19:31N 35°36' E 140°07'0 0.0
2018-Feb-16 19:01N 35°36' E 140°07'0 0.0
2018-Feb-16 18:30N 35°36' E 140°07'0 0.0
2018-Feb-16 18:01N 35°36' E 140°07'0 0.0
2018-Feb-16 17:30N 35°36' E 140°07'0 0.0
2018-Feb-16 17:00N 35°36' E 140°07'0 0.0
2018-Feb-16 16:30N 35°36' E 140°07'0 0.0
2018-Feb-16 16:00N 35°36' E 140°07'0 0.0
2018-Feb-16 15:30N 35°36' E 140°07'0 0.0
2018-Feb-16 15:01N 35°36' E 140°07'0 0.0
2018-Feb-16 14:30N 35°36' E 140°07'0 0.0
2018-Feb-16 14:01N 35°36' E 140°07'0 0.0
2018-Feb-16 13:30N 35°36' E 140°07'0 0.0
2018-Feb-16 13:00N 35°36' E 140°07'0 0.0
2018-Feb-16 12:30N 35°36' E 140°07'0 0.0
2018-Feb-16 12:01N 35°36' E 140°07'0 0.0
2018-Feb-16 11:31N 35°36' E 140°07'0 0.0
2018-Feb-16 11:01N 35°36' E 140°07'0 0.0
2018-Feb-16 10:29N 35°36' E 140°07'0 0.0
2018-Feb-16 10:00N 35°36' E 140°07'0 0.0
2018-Feb-16 09:29N 35°36' E 140°07'0 0.0
2018-Feb-16 09:00N 35°36' E 140°07'0 0.4
2018-Feb-16 08:30N 35°36' E 140°07'0 0.9
2018-Feb-16 08:00N 35°35' E 140°06'0 0.9
2018-Feb-16 07:30N 35°35' E 140°06'1 2.9
2018-Feb-16 07:01N 35°35' E 140°05'711.8
2018-Feb-16 06:26N 35°30' E 139°59'2 4.2
2018-Feb-16 05:57N 35°28' E 139°58'0 0.0
2018-Feb-16 05:30N 35°28' E 139°58'0 0.1
2018-Feb-16 05:00N 35°28' E 139°58'1 2.2
2018-Feb-16 04:30N 35°29' E 139°57'3 5.1
2018-Feb-16 04:00N 35°29' E 139°54'1 1.4
2018-Feb-16 03:26N 35°28' E 139°54'0 0.0
2018-Feb-16 03:00N 35°28' E 139°54'0 0.0
2018-Feb-16 02:29N 35°28' E 139°54'0 0.0
2018-Feb-16 01:59N 35°28' E 139°54'2 4.5
2018-Feb-16 01:30N 35°29' E 139°57'1 2.1
2018-Feb-16 01:01N 35°28' E 139°58'2 3.3
2018-Feb-16 00:28N 35°30' E 139°59'614.2
2018-Feb-16 00:00N 35°35' E 140°04'2 3.3
2018-Feb-15 23:30N 35°35' E 140°06'0 0.9
2018-Feb-15 23:00N 35°35' E 140°06'2 4.6
2018-Feb-15 22:30N 35°35' E 140°03'4 7.3
2018-Feb-15 22:00N 35°33' E 139°59'1 2.0
2018-Feb-15 21:29N 35°32' E 139°59'1 2.4
2018-Feb-15 20:59N 35°33' E 139°60'510.2
2018-Feb-15 20:31N 35°35' E 140°05'2 3.3
2018-Feb-15 20:00N 35°36' E 140°07'0 0.0
2018-Feb-15 19:31N 35°36' E 140°07'0 0.0
2018-Feb-15 19:01N 35°36' E 140°07'0 0.0
2018-Feb-15 18:31N 35°36' E 140°07'0 0.0
2018-Feb-15 18:00N 35°36' E 140°07'0 0.0
2018-Feb-15 17:30N 35°36' E 140°07'0 0.0
2018-Feb-15 17:00N 35°36' E 140°07'0 0.0
2018-Feb-15 16:31N 35°36' E 140°07'0 0.0
2018-Feb-15 16:00N 35°36' E 140°07'0 0.0
2018-Feb-15 15:30N 35°36' E 140°07'0 0.0
2018-Feb-15 15:00N 35°36' E 140°07'0 0.0
2018-Feb-15 14:30N 35°36' E 140°07'0 0.0
2018-Feb-15 14:00N 35°36' E 140°07'0 0.0
2018-Feb-15 13:30N 35°36' E 140°07'0 0.0
2018-Feb-15 13:01N 35°36' E 140°07'0 0.0
2018-Feb-15 12:31N 35°36' E 140°07'0 0.0
2018-Feb-15 12:01N 35°36' E 140°07'0 0.0
2018-Feb-15 11:29N 35°36' E 140°07'0 0.0
2018-Feb-15 11:00N 35°36' E 140°07'0 0.0
2018-Feb-15 10:30N 35°36' E 140°07'0 0.0
2018-Feb-15 10:00N 35°36' E 140°07'0 0.0
2018-Feb-15 09:31N 35°36' E 140°07'0 0.0
2018-Feb-15 09:00N 35°36' E 140°07'0 0.0
2018-Feb-15 08:30N 35°36' E 140°07'0 0.0
2018-Feb-15 08:01N 35°36' E 140°07'  

Dump ship's entire track history